This is the latest recevied weather packets stored in our database for station/object SV9TNF-56. If no packets are shown the sender has not sent any weather packets the latest 10 day(s).
| Time | Temp. | Humidity | Pressure | Rain* | Wind** | Luminosity | Snow |
|---|---|---|---|---|---|---|---|
| 1788367430 | 25.56° C | 64% | 1010.5 hPa | 0 mm | 16.99 m/s, 97° | - | - |
| 1788367130 | 25.56° C | 62% | 1010.5 hPa | 0 mm | 15.2 m/s, 126° | - | - |
| 1788366830 | 25.56° C | 62% | 1010.5 hPa | 0 mm | 8.05 m/s, 114° | - | - |
| 1788366530 | 25.56° C | 62% | 1010.5 hPa | 0 mm | 28.61 m/s, 108° | - | - |
| 1788366230 | 25.56° C | 60% | 1010.2 hPa | 0 mm | 25.48 m/s, 92° | - | - |
| 1788365930 | 25.56° C | 61% | 1010.5 hPa | 0 mm | 10.28 m/s, 132° | - | - |
| 1788365629 | 25.56° C | 63% | 1010.5 hPa | 0 mm | 24.14 m/s, 42° | - | - |
| 1788365330 | 25.56° C | 65% | 1010.8 hPa | 0 mm | 16.99 m/s, 90° | - | - |
| 1788365029 | 25.56° C | 65% | 1010.5 hPa | 0 mm | 16.09 m/s, 92° | - | - |
| 1788364729 | 25.56° C | 64% | 1010.8 hPa | 0 mm | 21.9 m/s, 95° | - | - |
| 1788364429 | 25.56° C | 62% | 1010.8 hPa | 0 mm | 16.54 m/s, 150° | - | - |
| 1788364129 | 25.56° C | 59% | 1010.5 hPa | 0 mm | 19.67 m/s, 140° | - | - |
| 1788363829 | 25.56° C | 59% | 1010.5 hPa | 0 mm | 18.33 m/s, 120° | - | - |
| 1788363529 | 25.56° C | 58% | 1010.5 hPa | 0 mm | 4.92 m/s, 121° | - | - |
| 1788363250 | 25.56° C | 61% | 1010.8 hPa | 0 mm | 9.83 m/s, 92° | - | - |
| 1788362929 | 25.56° C | 63% | 1010.5 hPa | 0 mm | 15.2 m/s, 128° | - | - |
| 1788362629 | 25.56° C | 65% | 1010.8 hPa | 0 mm | 23.25 m/s, 91° | - | - |
| 1788362328 | 25.56° C | 67% | 1010.5 hPa | 0 mm | 13.86 m/s, 103° | - | - |
| 1788362028 | 25.56° C | 64% | 1010.8 hPa | 0 mm | 22.35 m/s, 47° | - | - |
| 1788361728 | 25.56° C | 65% | 1010.5 hPa | 0 mm | 15.2 m/s, 103° | - | - |
| 1788361428 | 25.56° C | 65% | 1010.5 hPa | 0 mm | 14.75 m/s, 104° | - | - |
| 1788361128 | 25.56° C | 63% | 1010.5 hPa | 0 mm | 19.22 m/s, 116° | - | - |
| 1788360828 | 25.56° C | 63% | 1010.5 hPa | 0 mm | 14.75 m/s, 101° | - | - |
| 1788360528 | 25.56° C | 64% | 1010.8 hPa | 0 mm | 16.54 m/s, 122° | - | - |
| 1788360228 | 25.56° C | 64% | 1010.8 hPa | 0 mm | 10.28 m/s, 222° | - | - |
* Rain latest hour (hover to see other rain measurements)
** Current wind speed in m/s (hover to see current wind gust speed)